sensor_id;sensor_type;location;lat;lon;timestamp;P1;durP1;ratioP1;P2;durP2;ratioP2
21581;SDS011;10952;50.836;4.348;2022-08-03T00:01:34;5.85;;;1.40;;
21581;SDS011;10952;50.836;4.348;2022-08-03T00:04:00;6.10;;;1.10;;
21581;SDS011;10952;50.836;4.348;2022-08-03T00:06:26;4.05;;;0.95;;
21581;SDS011;10952;50.836;4.348;2022-08-03T00:08:52;8.95;;;1.92;;
21581;SDS011;10952;50.836;4.348;2022-08-03T00:11:18;8.32;;;1.45;;
21581;SDS011;10952;50.836;4.348;2022-08-03T00:13:43;7.82;;;1.52;;
21581;SDS011;10952;50.836;4.348;2022-08-03T00:16:09;8.05;;;1.90;;
21581;SDS011;10952;50.836;4.348;2022-08-03T00:18:36;11.48;;;1.60;;
21581;SDS011;10952;50.836;4.348;2022-08-03T00:21:02;5.80;;;1.48;;
21581;SDS011;10952;50.836;4.348;2022-08-03T00:23:28;5.15;;;1.65;;
21581;SDS011;10952;50.836;4.348;2022-08-03T00:25:54;4.40;;;1.40;;
21581;SDS011;10952;50.836;4.348;2022-08-03T00:28:20;4.93;;;1.65;;
21581;SDS011;10952;50.836;4.348;2022-08-03T00:30:46;6.47;;;1.40;;
21581;SDS011;10952;50.836;4.348;2022-08-03T00:33:12;6.38;;;1.60;;
21581;SDS011;10952;50.836;4.348;2022-08-03T00:35:38;9.35;;;1.60;;
21581;SDS011;10952;50.836;4.348;2022-08-03T00:38:04;6.00;;;1.58;;
21581;SDS011;10952;50.836;4.348;2022-08-03T00:40:30;11.57;;;1.58;;
21581;SDS011;10952;50.836;4.348;2022-08-03T00:42:57;4.75;;;1.55;;
21581;SDS011;10952;50.836;4.348;2022-08-03T00:45:43;8.73;;;1.63;;
21581;SDS011;10952;50.836;4.348;2022-08-03T00:48:09;4.70;;;1.50;;
21581;SDS011;10952;50.836;4.348;2022-08-03T00:50:39;9.15;;;1.90;;
21581;SDS011;10952;50.836;4.348;2022-08-03T00:53:06;8.23;;;1.80;;
21581;SDS011;10952;50.836;4.348;2022-08-03T00:55:35;9.50;;;2.10;;
21581;SDS011;10952;50.836;4.348;2022-08-03T00:58:01;7.17;;;1.73;;
21581;SDS011;10952;50.836;4.348;2022-08-03T01:00:31;9.52;;;1.92;;
21581;SDS011;10952;50.836;4.348;2022-08-03T01:02:59;9.13;;;2.17;;
21581;SDS011;10952;50.836;4.348;2022-08-03T01:05:26;10.73;;;2.10;;
21581;SDS011;10952;50.836;4.348;2022-08-03T01:16:11;8.70;;;1.77;;
21581;SDS011;10952;50.836;4.348;2022-08-03T01:18:44;8.97;;;1.90;;
21581;SDS011;10952;50.836;4.348;2022-08-03T01:21:48;8.37;;;2.10;;
21581;SDS011;10952;50.836;4.348;2022-08-03T01:24:36;7.33;;;1.57;;
21581;SDS011;10952;50.836;4.348;2022-08-03T01:27:18;8.80;;;1.80;;
21581;SDS011;10952;50.836;4.348;2022-08-03T01:30:06;10.13;;;2.30;;
21581;SDS011;10952;50.836;4.348;2022-08-03T01:35:01;12.03;;;2.10;;
21581;SDS011;10952;50.836;4.348;2022-08-03T01:37:42;8.73;;;1.77;;
21581;SDS011;10952;50.836;4.348;2022-08-03T01:40:13;9.07;;;1.90;;
21581;SDS011;10952;50.836;4.348;2022-08-03T01:42:41;9.27;;;1.80;;
21581;SDS011;10952;50.836;4.348;2022-08-03T01:45:09;9.67;;;1.77;;
21581;SDS011;10952;50.836;4.348;2022-08-03T01:47:37;8.10;;;1.53;;
21581;SDS011;10952;50.836;4.348;2022-08-03T01:50:04;11.13;;;2.00;;
21581;SDS011;10952;50.836;4.348;2022-08-03T01:52:33;10.90;;;1.93;;
21581;SDS011;10952;50.836;4.348;2022-08-03T01:55:03;11.57;;;2.20;;
21581;SDS011;10952;50.836;4.348;2022-08-03T01:57:31;7.90;;;1.70;;
21581;SDS011;10952;50.836;4.348;2022-08-03T01:59:59;8.13;;;1.80;;
21581;SDS011;10952;50.836;4.348;2022-08-03T02:02:25;8.00;;;1.60;;
21581;SDS011;10952;50.836;4.348;2022-08-03T02:04:53;9.77;;;1.63;;
21581;SDS011;10952;50.836;4.348;2022-08-03T02:07:21;10.20;;;2.03;;
21581;SDS011;10952;50.836;4.348;2022-08-03T02:09:49;13.23;;;1.93;;
21581;SDS011;10952;50.836;4.348;2022-08-03T02:12:16;9.03;;;2.10;;
21581;SDS011;10952;50.836;4.348;2022-08-03T02:14:43;8.53;;;1.80;;
21581;SDS011;10952;50.836;4.348;2022-08-03T02:17:11;10.77;;;2.00;;
21581;SDS011;10952;50.836;4.348;2022-08-03T02:19:39;9.27;;;1.80;;
21581;SDS011;10952;50.836;4.348;2022-08-03T02:22:07;12.60;;;2.50;;
21581;SDS011;10952;50.836;4.348;2022-08-03T02:24:35;11.33;;;2.17;;
21581;SDS011;10952;50.836;4.348;2022-08-03T02:27:02;8.90;;;1.83;;
21581;SDS011;10952;50.836;4.348;2022-08-03T02:29:32;12.77;;;1.97;;
21581;SDS011;10952;50.836;4.348;2022-08-03T02:32:00;8.47;;;1.93;;
21581;SDS011;10952;50.836;4.348;2022-08-03T02:34:28;9.07;;;2.43;;
21581;SDS011;10952;50.836;4.348;2022-08-03T02:36:57;6.20;;;2.20;;
21581;SDS011;10952;50.836;4.348;2022-08-03T02:39:24;11.37;;;2.60;;
21581;SDS011;10952;50.836;4.348;2022-08-03T02:41:54;10.37;;;3.07;;
21581;SDS011;10952;50.836;4.348;2022-08-03T02:44:26;7.87;;;1.87;;
21581;SDS011;10952;50.836;4.348;2022-08-03T02:46:58;5.83;;;1.67;;
21581;SDS011;10952;50.836;4.348;2022-08-03T02:49:27;7.17;;;2.03;;
21581;SDS011;10952;50.836;4.348;2022-08-03T02:51:54;9.33;;;1.93;;
21581;SDS011;10952;50.836;4.348;2022-08-03T02:54:21;4.70;;;1.67;;
21581;SDS011;10952;50.836;4.348;2022-08-03T02:56:50;4.83;;;1.83;;
21581;SDS011;10952;50.836;4.348;2022-08-03T02:59:19;9.30;;;1.80;;
21581;SDS011;10952;50.836;4.348;2022-08-03T03:01:46;6.27;;;1.83;;
21581;SDS011;10952;50.836;4.348;2022-08-03T03:04:12;12.33;;;1.90;;
21581;SDS011;10952;50.836;4.348;2022-08-03T03:06:39;7.30;;;1.90;;
21581;SDS011;10952;50.836;4.348;2022-08-03T03:09:06;5.73;;;1.70;;
21581;SDS011;10952;50.836;4.348;2022-08-03T03:11:32;5.57;;;1.57;;
21581;SDS011;10952;50.836;4.348;2022-08-03T03:14:03;6.57;;;2.10;;
21581;SDS011;10952;50.836;4.348;2022-08-03T03:16:29;4.43;;;1.40;;
21581;SDS011;10952;50.836;4.348;2022-08-03T03:18:56;12.47;;;2.33;;
21581;SDS011;10952;50.836;4.348;2022-08-03T03:21:23;7.93;;;1.60;;
21581;SDS011;10952;50.836;4.348;2022-08-03T03:23:51;9.10;;;1.80;;
21581;SDS011;10952;50.836;4.348;2022-08-03T03:26:17;7.43;;;1.90;;
21581;SDS011;10952;50.836;4.348;2022-08-03T03:28:43;10.57;;;1.90;;
21581;SDS011;10952;50.836;4.348;2022-08-03T03:31:09;11.23;;;2.20;;
21581;SDS011;10952;50.836;4.348;2022-08-03T03:33:35;9.43;;;2.00;;
21581;SDS011;10952;50.836;4.348;2022-08-03T03:36:03;11.13;;;1.70;;
21581;SDS011;10952;50.836;4.348;2022-08-03T03:38:30;11.67;;;2.20;;
21581;SDS011;10952;50.836;4.348;2022-08-03T03:40:56;6.00;;;1.70;;
21581;SDS011;10952;50.836;4.348;2022-08-03T03:43:22;7.03;;;1.63;;
21581;SDS011;10952;50.836;4.348;2022-08-03T03:45:48;7.40;;;1.70;;
21581;SDS011;10952;50.836;4.348;2022-08-03T03:48:17;6.60;;;1.67;;
21581;SDS011;10952;50.836;4.348;2022-08-03T03:50:43;5.07;;;1.40;;
21581;SDS011;10952;50.836;4.348;2022-08-03T03:53:10;12.33;;;1.90;;
21581;SDS011;10952;50.836;4.348;2022-08-03T03:55:37;9.00;;;1.83;;
21581;SDS011;10952;50.836;4.348;2022-08-03T03:58:03;14.53;;;1.97;;
21581;SDS011;10952;50.836;4.348;2022-08-03T04:00:29;8.53;;;1.93;;
21581;SDS011;10952;50.836;4.348;2022-08-03T04:02:55;9.40;;;1.63;;
21581;SDS011;10952;50.836;4.348;2022-08-03T04:05:21;7.57;;;1.87;;
21581;SDS011;10952;50.836;4.348;2022-08-03T04:08:06;11.80;;;1.83;;
21581;SDS011;10952;50.836;4.348;2022-08-03T04:16:21;8.97;;;2.23;;
21581;SDS011;10952;50.836;4.348;2022-08-03T04:18:51;9.47;;;2.10;;
21581;SDS011;10952;50.836;4.348;2022-08-03T04:21:21;13.17;;;2.23;;
21581;SDS011;10952;50.836;4.348;2022-08-03T04:23:50;9.50;;;2.10;;
21581;SDS011;10952;50.836;4.348;2022-08-03T04:26:19;9.23;;;2.00;;
21581;SDS011;10952;50.836;4.348;2022-08-03T04:28:48;12.93;;;2.67;;
21581;SDS011;10952;50.836;4.348;2022-08-03T04:31:16;9.73;;;2.40;;
21581;SDS011;10952;50.836;4.348;2022-08-03T04:33:44;16.73;;;3.10;;
21581;SDS011;10952;50.836;4.348;2022-08-03T04:36:11;8.53;;;2.10;;
21581;SDS011;10952;50.836;4.348;2022-08-03T04:41:22;12.83;;;2.70;;
21581;SDS011;10952;50.836;4.348;2022-08-03T04:43:50;20.17;;;2.70;;
21581;SDS011;10952;50.836;4.348;2022-08-03T04:46:20;13.80;;;3.87;;
21581;SDS011;10952;50.836;4.348;2022-08-03T04:48:47;12.90;;;2.93;;
21581;SDS011;10952;50.836;4.348;2022-08-03T04:51:14;12.10;;;2.20;;
21581;SDS011;10952;50.836;4.348;2022-08-03T04:53:41;12.77;;;2.70;;
21581;SDS011;10952;50.836;4.348;2022-08-03T04:56:08;11.83;;;2.53;;
21581;SDS011;10952;50.836;4.348;2022-08-03T04:58:34;8.53;;;2.50;;
21581;SDS011;10952;50.836;4.348;2022-08-03T05:01:02;12.97;;;2.60;;
21581;SDS011;10952;50.836;4.348;2022-08-03T05:03:27;13.77;;;3.07;;
21581;SDS011;10952;50.836;4.348;2022-08-03T05:05:54;10.43;;;2.60;;
21581;SDS011;10952;50.836;4.348;2022-08-03T05:08:21;13.67;;;2.70;;
21581;SDS011;10952;50.836;4.348;2022-08-03T05:10:47;14.83;;;3.17;;
21581;SDS011;10952;50.836;4.348;2022-08-03T05:13:12;10.20;;;2.60;;
21581;SDS011;10952;50.836;4.348;2022-08-03T05:15:38;14.97;;;3.77;;
21581;SDS011;10952;50.836;4.348;2022-08-03T05:18:05;13.50;;;2.83;;
21581;SDS011;10952;50.836;4.348;2022-08-03T05:20:31;12.97;;;3.70;;
21581;SDS011;10952;50.836;4.348;2022-08-03T05:22:57;16.03;;;3.37;;
21581;SDS011;10952;50.836;4.348;2022-08-03T05:25:25;25.40;;;3.77;;
21581;SDS011;10952;50.836;4.348;2022-08-03T05:27:52;20.93;;;3.37;;
21581;SDS011;10952;50.836;4.348;2022-08-03T05:30:18;11.57;;;2.80;;
21581;SDS011;10952;50.836;4.348;2022-08-03T05:32:43;16.13;;;3.37;;
21581;SDS011;10952;50.836;4.348;2022-08-03T05:35:09;12.40;;;3.10;;
21581;SDS011;10952;50.836;4.348;2022-08-03T05:37:34;14.57;;;2.37;;
21581;SDS011;10952;50.836;4.348;2022-08-03T05:40:00;10.30;;;2.37;;
21581;SDS011;10952;50.836;4.348;2022-08-03T05:42:26;12.33;;;2.63;;
21581;SDS011;10952;50.836;4.348;2022-08-03T05:44:52;14.03;;;2.90;;
21581;SDS011;10952;50.836;4.348;2022-08-03T05:47:17;11.93;;;2.60;;
21581;SDS011;10952;50.836;4.348;2022-08-03T05:49:44;13.23;;;3.60;;
21581;SDS011;10952;50.836;4.348;2022-08-03T05:52:09;9.10;;;2.50;;
21581;SDS011;10952;50.836;4.348;2022-08-03T05:54:35;9.87;;;2.30;;
21581;SDS011;10952;50.836;4.348;2022-08-03T05:57:01;12.20;;;2.67;;
21581;SDS011;10952;50.836;4.348;2022-08-03T05:59:26;6.07;;;2.17;;
21581;SDS011;10952;50.836;4.348;2022-08-03T06:01:52;7.53;;;2.17;;
21581;SDS011;10952;50.836;4.348;2022-08-03T06:04:18;10.20;;;2.53;;
21581;SDS011;10952;50.836;4.348;2022-08-03T06:06:43;10.47;;;2.83;;
21581;SDS011;10952;50.836;4.348;2022-08-03T06:09:09;10.17;;;2.30;;
21581;SDS011;10952;50.836;4.348;2022-08-03T06:11:35;15.10;;;2.87;;
21581;SDS011;10952;50.836;4.348;2022-08-03T06:14:02;14.30;;;3.07;;
21581;SDS011;10952;50.836;4.348;2022-08-03T06:16:27;5.47;;;2.23;;
21581;SDS011;10952;50.836;4.348;2022-08-03T06:18:53;12.87;;;2.40;;
21581;SDS011;10952;50.836;4.348;2022-08-03T06:21:19;10.30;;;2.47;;
21581;SDS011;10952;50.836;4.348;2022-08-03T06:23:44;8.30;;;2.70;;
21581;SDS011;10952;50.836;4.348;2022-08-03T06:26:11;7.53;;;2.87;;
21581;SDS011;10952;50.836;4.348;2022-08-03T06:28:37;10.23;;;1.90;;
21581;SDS011;10952;50.836;4.348;2022-08-03T06:31:03;9.63;;;2.30;;
21581;SDS011;10952;50.836;4.348;2022-08-03T06:33:29;9.63;;;2.23;;
21581;SDS011;10952;50.836;4.348;2022-08-03T06:35:54;13.83;;;2.73;;
21581;SDS011;10952;50.836;4.348;2022-08-03T06:38:21;14.83;;;2.63;;
21581;SDS011;10952;50.836;4.348;2022-08-03T06:40:49;14.67;;;2.60;;
21581;SDS011;10952;50.836;4.348;2022-08-03T06:43:15;12.77;;;3.00;;
21581;SDS011;10952;50.836;4.348;2022-08-03T06:45:41;11.53;;;3.90;;
21581;SDS011;10952;50.836;4.348;2022-08-03T06:48:07;17.77;;;3.70;;
21581;SDS011;10952;50.836;4.348;2022-08-03T06:50:37;11.10;;;2.20;;
21581;SDS011;10952;50.836;4.348;2022-08-03T06:53:05;11.57;;;2.80;;
21581;SDS011;10952;50.836;4.348;2022-08-03T06:55:31;11.83;;;2.50;;
21581;SDS011;10952;50.836;4.348;2022-08-03T06:57:57;13.90;;;2.70;;
21581;SDS011;10952;50.836;4.348;2022-08-03T07:00:24;13.87;;;2.53;;
21581;SDS011;10952;50.836;4.348;2022-08-03T07:02:50;9.77;;;2.40;;
21581;SDS011;10952;50.836;4.348;2022-08-03T07:05:19;12.17;;;2.90;;
21581;SDS011;10952;50.836;4.348;2022-08-03T07:07:46;18.33;;;6.03;;
21581;SDS011;10952;50.836;4.348;2022-08-03T07:10:12;11.87;;;5.83;;
21581;SDS011;10952;50.836;4.348;2022-08-03T07:12:37;7.80;;;2.37;;
21581;SDS011;10952;50.836;4.348;2022-08-03T07:15:04;7.33;;;2.27;;
21581;SDS011;10952;50.836;4.348;2022-08-03T07:17:39;7.30;;;2.47;;
21581;SDS011;10952;50.836;4.348;2022-08-03T07:20:05;16.50;;;2.73;;
21581;SDS011;10952;50.836;4.348;2022-08-03T07:22:32;10.45;;;2.20;;
21581;SDS011;10952;50.836;4.348;2022-08-03T07:25:04;15.90;;;2.27;;
21581;SDS011;10952;50.836;4.348;2022-08-03T07:27:30;9.43;;;1.83;;
21581;SDS011;10952;50.836;4.348;2022-08-03T07:29:56;19.67;;;2.10;;
21581;SDS011;10952;50.836;4.348;2022-08-03T07:32:23;11.93;;;2.10;;
21581;SDS011;10952;50.836;4.348;2022-08-03T07:34:49;7.80;;;1.57;;
21581;SDS011;10952;50.836;4.348;2022-08-03T07:37:15;13.13;;;2.42;;
21581;SDS011;10952;50.836;4.348;2022-08-03T07:39:43;4.87;;;1.70;;
21581;SDS011;10952;50.836;4.348;2022-08-03T07:42:09;5.47;;;1.73;;
21581;SDS011;10952;50.836;4.348;2022-08-03T07:44:35;10.50;;;1.93;;
21581;SDS011;10952;50.836;4.348;2022-08-03T07:47:02;7.90;;;1.50;;
21581;SDS011;10952;50.836;4.348;2022-08-03T07:49:28;9.10;;;1.88;;
21581;SDS011;10952;50.836;4.348;2022-08-03T07:51:55;9.75;;;1.80;;
21581;SDS011;10952;50.836;4.348;2022-08-03T07:54:39;8.47;;;2.10;;
21581;SDS011;10952;50.836;4.348;2022-08-03T07:57:06;9.75;;;1.70;;
21581;SDS011;10952;50.836;4.348;2022-08-03T07:59:32;8.98;;;2.28;;
21581;SDS011;10952;50.836;4.348;2022-08-03T08:01:59;10.75;;;1.70;;
21581;SDS011;10952;50.836;4.348;2022-08-03T08:04:25;14.05;;;1.75;;
21581;SDS011;10952;50.836;4.348;2022-08-03T08:06:50;8.95;;;1.80;;
21581;SDS011;10952;50.836;4.348;2022-08-03T08:09:16;9.00;;;1.65;;
21581;SDS011;10952;50.836;4.348;2022-08-03T08:11:42;13.13;;;2.05;;
21581;SDS011;10952;50.836;4.348;2022-08-03T08:14:07;11.43;;;2.28;;
21581;SDS011;10952;50.836;4.348;2022-08-03T08:16:33;8.25;;;1.98;;
21581;SDS011;10952;50.836;4.348;2022-08-03T08:18:59;14.18;;;1.83;;
21581;SDS011;10952;50.836;4.348;2022-08-03T08:21:26;12.65;;;2.17;;
21581;SDS011;10952;50.836;4.348;2022-08-03T08:23:53;7.55;;;2.58;;
21581;SDS011;10952;50.836;4.348;2022-08-03T08:26:19;9.55;;;2.30;;
21581;SDS011;10952;50.836;4.348;2022-08-03T08:28:45;17.20;;;2.83;;
21581;SDS011;10952;50.836;4.348;2022-08-03T08:31:11;13.77;;;2.22;;
21581;SDS011;10952;50.836;4.348;2022-08-03T08:33:37;8.27;;;2.28;;
21581;SDS011;10952;50.836;4.348;2022-08-03T08:36:03;11.40;;;1.85;;
21581;SDS011;10952;50.836;4.348;2022-08-03T08:38:29;11.35;;;2.33;;
21581;SDS011;10952;50.836;4.348;2022-08-03T08:40:54;15.88;;;3.15;;
21581;SDS011;10952;50.836;4.348;2022-08-03T08:43:20;17.23;;;2.42;;
21581;SDS011;10952;50.836;4.348;2022-08-03T08:45:48;10.77;;;1.70;;
21581;SDS011;10952;50.836;4.348;2022-08-03T08:48:16;14.15;;;2.10;;
21581;SDS011;10952;50.836;4.348;2022-08-03T08:50:46;7.75;;;1.70;;
21581;SDS011;10952;50.836;4.348;2022-08-03T08:53:16;10.95;;;2.33;;
21581;SDS011;10952;50.836;4.348;2022-08-03T08:55:45;14.25;;;1.98;;
21581;SDS011;10952;50.836;4.348;2022-08-03T08:58:12;8.98;;;1.60;;
21581;SDS011;10952;50.836;4.348;2022-08-03T09:00:43;9.35;;;1.65;;
21581;SDS011;10952;50.836;4.348;2022-08-03T09:03:11;9.25;;;1.65;;
21581;SDS011;10952;50.836;4.348;2022-08-03T09:05:40;10.93;;;2.00;;
21581;SDS011;10952;50.836;4.348;2022-08-03T09:08:07;12.05;;;2.05;;
21581;SDS011;10952;50.836;4.348;2022-08-03T09:10:33;15.45;;;2.20;;
21581;SDS011;10952;50.836;4.348;2022-08-03T09:12:59;12.85;;;1.90;;
21581;SDS011;10952;50.836;4.348;2022-08-03T09:17:53;12.43;;;2.30;;
21581;SDS011;10952;50.836;4.348;2022-08-03T09:20:21;11.75;;;1.85;;
21581;SDS011;10952;50.836;4.348;2022-08-03T09:22:58;13.50;;;2.28;;
21581;SDS011;10952;50.836;4.348;2022-08-03T09:25:41;7.25;;;1.92;;
21581;SDS011;10952;50.836;4.348;2022-08-03T09:28:10;8.60;;;1.50;;
21581;SDS011;10952;50.836;4.348;2022-08-03T09:30:44;9.70;;;1.92;;
21581;SDS011;10952;50.836;4.348;2022-08-03T09:33:22;7.53;;;1.90;;
21581;SDS011;10952;50.836;4.348;2022-08-03T09:35:48;7.18;;;2.17;;
21581;SDS011;10952;50.836;4.348;2022-08-03T09:38:16;8.10;;;1.80;;
21581;SDS011;10952;50.836;4.348;2022-08-03T09:40:44;12.65;;;2.10;;
21581;SDS011;10952;50.836;4.348;2022-08-03T09:43:10;11.20;;;3.45;;
21581;SDS011;10952;50.836;4.348;2022-08-03T09:45:37;20.45;;;2.90;;
21581;SDS011;10952;50.836;4.348;2022-08-03T09:48:26;6.82;;;1.20;;
21581;SDS011;10952;50.836;4.348;2022-08-03T09:50:51;7.63;;;1.25;;
21581;SDS011;10952;50.836;4.348;2022-08-03T09:53:18;4.97;;;1.50;;
21581;SDS011;10952;50.836;4.348;2022-08-03T09:55:51;4.63;;;1.17;;
21581;SDS011;10952;50.836;4.348;2022-08-03T09:58:25;14.93;;;1.05;;
21581;SDS011;10952;50.836;4.348;2022-08-03T10:00:56;3.72;;;0.90;;
21581;SDS011;10952;50.836;4.348;2022-08-03T10:03:22;15.65;;;1.40;;
21581;SDS011;10952;50.836;4.348;2022-08-03T10:05:50;9.07;;;1.83;;
21581;SDS011;10952;50.836;4.348;2022-08-03T10:08:18;23.90;;;1.80;;
21581;SDS011;10952;50.836;4.348;2022-08-03T10:10:44;10.80;;;1.15;;
21581;SDS011;10952;50.836;4.348;2022-08-03T10:13:15;5.30;;;1.75;;
21581;SDS011;10952;50.836;4.348;2022-08-03T10:15:42;12.73;;;1.60;;
21581;SDS011;10952;50.836;4.348;2022-08-03T10:18:08;11.10;;;1.30;;
21581;SDS011;10952;50.836;4.348;2022-08-03T10:20:42;10.82;;;1.38;;
21581;SDS011;10952;50.836;4.348;2022-08-03T10:23:13;7.53;;;1.77;;
21581;SDS011;10952;50.836;4.348;2022-08-03T10:25:40;5.38;;;0.93;;
21581;SDS011;10952;50.836;4.348;2022-08-03T10:28:11;6.03;;;1.23;;
21581;SDS011;10952;50.836;4.348;2022-08-03T10:30:39;14.80;;;1.67;;
21581;SDS011;10952;50.836;4.348;2022-08-03T10:33:12;5.03;;;0.80;;
21581;SDS011;10952;50.836;4.348;2022-08-03T10:35:42;5.50;;;1.40;;
21581;SDS011;10952;50.836;4.348;2022-08-03T10:38:11;8.27;;;1.48;;
21581;SDS011;10952;50.836;4.348;2022-08-03T10:40:42;8.38;;;0.88;;
21581;SDS011;10952;50.836;4.348;2022-08-03T10:43:10;6.03;;;1.17;;
21581;SDS011;10952;50.836;4.348;2022-08-03T10:45:42;10.68;;;1.70;;
21581;SDS011;10952;50.836;4.348;2022-08-03T10:48:10;5.88;;;1.50;;
21581;SDS011;10952;50.836;4.348;2022-08-03T10:50:36;5.93;;;1.30;;
21581;SDS011;10952;50.836;4.348;2022-08-03T10:53:05;9.95;;;1.50;;
21581;SDS011;10952;50.836;4.348;2022-08-03T10:55:35;7.65;;;1.20;;
21581;SDS011;10952;50.836;4.348;2022-08-03T11:01:05;4.95;;;1.10;;
21581;SDS011;10952;50.836;4.348;2022-08-03T11:03:32;5.13;;;1.30;;
21581;SDS011;10952;50.836;4.348;2022-08-03T11:06:20;8.30;;;1.40;;
21581;SDS011;10952;50.836;4.348;2022-08-03T11:08:49;5.38;;;1.30;;
21581;SDS011;10952;50.836;4.348;2022-08-03T11:11:41;3.78;;;1.25;;
21581;SDS011;10952;50.836;4.348;2022-08-03T11:16:46;4.47;;;0.98;;
21581;SDS011;10952;50.836;4.348;2022-08-03T11:19:43;5.85;;;1.40;;
21581;SDS011;10952;50.836;4.348;2022-08-03T11:22:13;3.78;;;0.98;;
21581;SDS011;10952;50.836;4.348;2022-08-03T11:32:58;4.75;;;1.10;;
21581;SDS011;10952;50.836;4.348;2022-08-03T11:35:28;9.35;;;1.17;;
21581;SDS011;10952;50.836;4.348;2022-08-03T11:48:41;5.85;;;1.40;;
21581;SDS011;10952;50.836;4.348;2022-08-03T11:56:20;3.33;;;0.90;;
21581;SDS011;10952;50.836;4.348;2022-08-03T11:58:47;7.93;;;1.00;;
21581;SDS011;10952;50.836;4.348;2022-08-03T12:01:14;7.97;;;1.23;;
21581;SDS011;10952;50.836;4.348;2022-08-03T12:03:42;5.07;;;0.95;;
21581;SDS011;10952;50.836;4.348;2022-08-03T12:06:09;5.43;;;1.10;;
21581;SDS011;10952;50.836;4.348;2022-08-03T12:08:36;6.93;;;1.08;;
21581;SDS011;10952;50.836;4.348;2022-08-03T12:11:02;7.45;;;1.65;;
21581;SDS011;10952;50.836;4.348;2022-08-03T12:13:38;6.80;;;1.10;;
21581;SDS011;10952;50.836;4.348;2022-08-03T12:16:04;7.72;;;1.10;;
21581;SDS011;10952;50.836;4.348;2022-08-03T12:18:30;4.00;;;1.20;;
21581;SDS011;10952;50.836;4.348;2022-08-03T12:21:07;5.72;;;1.02;;
21581;SDS011;10952;50.836;4.348;2022-08-03T12:23:34;4.43;;;0.77;;
21581;SDS011;10952;50.836;4.348;2022-08-03T12:26:01;2.97;;;0.85;;
21581;SDS011;10952;50.836;4.348;2022-08-03T12:28:28;5.72;;;0.80;;
21581;SDS011;10952;50.836;4.348;2022-08-03T12:30:54;3.92;;;0.98;;
21581;SDS011;10952;50.836;4.348;2022-08-03T12:33:25;6.72;;;1.30;;
21581;SDS011;10952;50.836;4.348;2022-08-03T12:38:28;7.38;;;1.10;;
21581;SDS011;10952;50.836;4.348;2022-08-03T12:40:59;8.73;;;1.23;;
21581;SDS011;10952;50.836;4.348;2022-08-03T12:43:27;6.65;;;1.00;;
21581;SDS011;10952;50.836;4.348;2022-08-03T12:46:15;4.03;;;0.77;;
21581;SDS011;10952;50.836;4.348;2022-08-03T12:51:24;7.28;;;0.98;;
21581;SDS011;10952;50.836;4.348;2022-08-03T12:53:55;8.23;;;1.75;;
21581;SDS011;10952;50.836;4.348;2022-08-03T12:56:21;5.63;;;0.80;;
21581;SDS011;10952;50.836;4.348;2022-08-03T12:58:47;8.55;;;1.00;;
21581;SDS011;10952;50.836;4.348;2022-08-03T13:01:17;4.18;;;1.20;;
21581;SDS011;10952;50.836;4.348;2022-08-03T13:03:44;6.82;;;1.42;;
21581;SDS011;10952;50.836;4.348;2022-08-03T13:06:19;5.50;;;1.35;;
21581;SDS011;10952;50.836;4.348;2022-08-03T13:08:49;5.35;;;0.85;;
21581;SDS011;10952;50.836;4.348;2022-08-03T13:11:26;14.13;;;1.48;;
21581;SDS011;10952;50.836;4.348;2022-08-03T13:13:53;6.57;;;1.42;;
21581;SDS011;10952;50.836;4.348;2022-08-03T13:16:22;5.05;;;1.17;;
21581;SDS011;10952;50.836;4.348;2022-08-03T13:18:48;7.65;;;1.20;;
21581;SDS011;10952;50.836;4.348;2022-08-03T13:21:16;6.40;;;1.30;;
21581;SDS011;10952;50.836;4.348;2022-08-03T13:23:43;5.60;;;0.80;;
21581;SDS011;10952;50.836;4.348;2022-08-03T13:26:09;3.35;;;0.90;;
21581;SDS011;10952;50.836;4.348;2022-08-03T13:28:35;6.47;;;1.08;;
21581;SDS011;10952;50.836;4.348;2022-08-03T13:31:02;2.20;;;1.15;;
21581;SDS011;10952;50.836;4.348;2022-08-03T13:33:27;6.57;;;1.38;;
21581;SDS011;10952;50.836;4.348;2022-08-03T13:35:53;5.93;;;1.27;;
21581;SDS011;10952;50.836;4.348;2022-08-03T13:38:19;4.95;;;1.27;;
21581;SDS011;10952;50.836;4.348;2022-08-03T13:40:45;5.70;;;0.93;;
21581;SDS011;10952;50.836;4.348;2022-08-03T13:43:10;5.75;;;0.80;;
21581;SDS011;10952;50.836;4.348;2022-08-03T13:45:36;2.83;;;1.05;;
21581;SDS011;10952;50.836;4.348;2022-08-03T13:48:02;3.38;;;0.90;;
21581;SDS011;10952;50.836;4.348;2022-08-03T13:50:28;5.45;;;1.40;;
21581;SDS011;10952;50.836;4.348;2022-08-03T13:52:55;5.93;;;1.42;;
21581;SDS011;10952;50.836;4.348;2022-08-03T13:55:21;4.78;;;1.20;;
21581;SDS011;10952;50.836;4.348;2022-08-03T13:57:46;6.07;;;0.90;;
21581;SDS011;10952;50.836;4.348;2022-08-03T14:00:12;9.38;;;1.08;;
21581;SDS011;10952;50.836;4.348;2022-08-03T14:02:39;4.50;;;2.15;;
21581;SDS011;10952;50.836;4.348;2022-08-03T14:05:05;11.15;;;1.40;;
21581;SDS011;10952;50.836;4.348;2022-08-03T14:07:32;6.68;;;1.70;;
21581;SDS011;10952;50.836;4.348;2022-08-03T14:09:57;9.80;;;1.10;;
21581;SDS011;10952;50.836;4.348;2022-08-03T14:12:23;3.35;;;0.80;;
21581;SDS011;10952;50.836;4.348;2022-08-03T14:14:49;7.00;;;0.88;;
21581;SDS011;10952;50.836;4.348;2022-08-03T14:17:14;8.13;;;1.10;;
21581;SDS011;10952;50.836;4.348;2022-08-03T14:19:40;3.90;;;1.38;;
21581;SDS011;10952;50.836;4.348;2022-08-03T14:22:06;3.85;;;1.63;;
21581;SDS011;10952;50.836;4.348;2022-08-03T14:24:31;3.70;;;1.10;;
21581;SDS011;10952;50.836;4.348;2022-08-03T14:26:57;3.38;;;0.75;;
21581;SDS011;10952;50.836;4.348;2022-08-03T14:29:22;7.60;;;1.00;;
21581;SDS011;10952;50.836;4.348;2022-08-03T14:31:48;4.38;;;0.80;;
21581;SDS011;10952;50.836;4.348;2022-08-03T14:34:14;5.65;;;1.25;;
21581;SDS011;10952;50.836;4.348;2022-08-03T14:36:39;7.88;;;1.00;;
21581;SDS011;10952;50.836;4.348;2022-08-03T14:39:06;4.15;;;1.20;;
21581;SDS011;10952;50.836;4.348;2022-08-03T14:41:31;2.72;;;1.20;;
21581;SDS011;10952;50.836;4.348;2022-08-03T14:43:57;5.47;;;1.13;;
21581;SDS011;10952;50.836;4.348;2022-08-03T14:46:22;5.07;;;0.90;;
21581;SDS011;10952;50.836;4.348;2022-08-03T14:48:48;4.45;;;1.00;;
21581;SDS011;10952;50.836;4.348;2022-08-03T14:51:14;6.28;;;1.13;;
21581;SDS011;10952;50.836;4.348;2022-08-03T14:53:39;4.07;;;0.82;;
21581;SDS011;10952;50.836;4.348;2022-08-03T14:56:05;5.13;;;1.30;;
21581;SDS011;10952;50.836;4.348;2022-08-03T14:58:31;3.92;;;0.70;;
21581;SDS011;10952;50.836;4.348;2022-08-03T15:00:57;4.93;;;1.00;;
21581;SDS011;10952;50.836;4.348;2022-08-03T15:03:23;5.35;;;0.70;;
21581;SDS011;10952;50.836;4.348;2022-08-03T15:05:49;4.30;;;1.10;;
21581;SDS011;10952;50.836;4.348;2022-08-03T15:08:22;6.68;;;1.02;;
21581;SDS011;10952;50.836;4.348;2022-08-03T15:10:49;2.70;;;1.25;;
21581;SDS011;10952;50.836;4.348;2022-08-03T15:13:16;3.40;;;1.00;;
21581;SDS011;10952;50.836;4.348;2022-08-03T15:15:42;4.00;;;0.90;;
21581;SDS011;10952;50.836;4.348;2022-08-03T15:18:08;5.97;;;0.82;;
21581;SDS011;10952;50.836;4.348;2022-08-03T15:20:33;2.88;;;0.75;;
21581;SDS011;10952;50.836;4.348;2022-08-03T15:22:59;5.95;;;0.80;;
21581;SDS011;10952;50.836;4.348;2022-08-03T15:25:25;3.95;;;0.90;;
21581;SDS011;10952;50.836;4.348;2022-08-03T15:27:51;2.25;;;0.82;;
21581;SDS011;10952;50.836;4.348;2022-08-03T15:30:17;7.20;;;1.10;;
21581;SDS011;10952;50.836;4.348;2022-08-03T15:32:42;3.90;;;0.95;;
21581;SDS011;10952;50.836;4.348;2022-08-03T15:35:08;5.45;;;0.90;;
21581;SDS011;10952;50.836;4.348;2022-08-03T15:37:34;5.13;;;0.77;;
21581;SDS011;10952;50.836;4.348;2022-08-03T15:40:00;5.07;;;1.20;;
21581;SDS011;10952;50.836;4.348;2022-08-03T15:42:29;6.10;;;1.55;;
21581;SDS011;10952;50.836;4.348;2022-08-03T15:44:56;5.43;;;0.90;;